ETHE/ZPQ METAR and TAF weather

Enter ICAO airport designator
Station Type Date Time Source
ETHE METAR 2017/12/20 13:20 UTC NOAA

ETHE 201320Z AUTO 25004KT //// // ////// 07/06 Q1032 ///


Station Type Date Time Source
ETHE Decoded METAR 2017/12/20 13:20 UTC NOAA

Rheine-Bentlage, Germany (ETHE) 52-18N 007-23E 49M
Dec 20, 2017 - 08:20 AM EST / 2017.12.20 1320 UTC
Wind: from the WSW (250 degrees) at 5 MPH (4 KT):0
Temperature: 44 F (7 C)
Dew Point: 42 F (6 C)
Relative Humidity: 93%
Pressure (altimeter): 30.47 in. Hg (1032 hPa)
ob: ETHE 201320Z AUTO 25004KT //// // ////// 07/06 Q1032 ///
cycle: 13

Station Type Date Time Source
ETHE TAF 2016/06/28 05:36 UTC NOAA

TAF TAF ETHE 280423Z 2805/2817 VRB02KT 7000 MIFG FEW060 SCT200
BECMG 2805/2807 15004KT 9999 NSW FEW030 SCT200


Example: see airport list